AirNav   Air Wisconsin Up To $57,000 Bonus
 
 1694 users online  

02CL Conover Air Lodge Airport
Frazier Park, California, USA

GOING TO FRAZIER PARK?


FAA INFORMATION EFFECTIVE 04 NOVEMBER 2021

Location

FAA Identifier: 02CL
Lat/Long: 34-45-39.9310N 119-03-32.3750W
34-45.665517N 119-03.539583W
34.7610919,-119.0589931
(estimated)
Elevation: 5160 ft. / 1573 m (estimated)
Variation: 14E (1985)
From city: 7 miles SW of FRAZIER PARK, CA
Time zone: UTC -7 (UTC -8 during Standard Time)
Zip code: 93225

Airport Operations

Airport use: Private use. Permission required prior to landing
Activation date: 02/1966
Control tower: no
ARTCC: LOS ANGELES CENTER
FSS: RANCHO MURIETA FLIGHT SERVICE STATION
Attendance: IREG
Wind indicator: yes
Segmented circle: no

Nearby radio navigation aids

VOR radial/distance  VOR name  Freq  Var
GMNr239/10.1GORMAN VORTAC116.1016E
LHSr266/24.2LAKE HUGHES VORTAC114.3515E
FIMr325/25.8FILLMORE VORTAC112.5015E
CMAr348/33.0CAMARILLO VOR/DME115.8015E
RZSr053/38.3SAN MARCUS VORTAC114.9014E
VTUr344/38.8VENTURA VOR/DME108.2015E

Airport Services

Airframe service: MINOR
Powerplant service: MINOR

Runway Information

Runway 16/34

Dimensions: 3000 x 60 ft. / 914 x 18 m
600 FT OVERRUN.
Surface: dirt
Operational restrictions: LAND NORTH, TAKEOFF SOUTH
RUNWAY 16  RUNWAY 34
Traffic pattern: leftleft
Obstructions: nonepline, marked

Airport Ownership and Management from official FAA records

Ownership: Privately-owned
Owner: CONOVER ESTATES INC
16998 LOCKWOOD VALLEY DRIVE
LOCKWOOD VALLEY, CA 93225-9394
Phone 661-245-3372
Manager: STEVEN KALL
16998 LOCKWOOD VALLEY DRIVE
LOCKWOOD VALLEY, CA 93225-9394
Phone 661-245-3372

Airport Operational Statistics

Aircraft based on the field: 1
Single engine airplanes: 1
    

Additional Remarks

FOR CD CTC LOS ANGELES ARTCC AT 661-575-2079.

Instrument Procedures

There are no published instrument procedures at 02CL.

Some nearby airports with instrument procedures:

KCMA - Camarillo Airport (33 nm S)
L45 - Bakersfield Municipal Airport (34 nm N)
KOXR - Oxnard Airport (34 nm S)
KNTD - Point Mugu Naval Air Station (Naval Base Ventura County) (39 nm S)
KBFL - Meadows Field Airport (40 nm N)
 
Loc | Ops | Rwys | IFR | FBO | Links
Com | Nav | Svcs | Stats | Notes
Area around 02CL (Conover Air Lodge Airport)
 
Road maps at: MapQuest Bing Google
 
Aerial photo
No photo
 
Sectional chart

 
Airport distance calculator
Flying to Conover Air Lodge Airport? Find the distance to fly.

From to 02CL

Sunrise and sunset
Times for 30-Nov-2021
 Local
(UTC-8)
 Zulu
(UTC)
Morning civil twilight06:1814:18
Sunrise06:4614:46
Sunset16:4400:44
Evening civil twilight17:1201:12

Current date and time
Zulu (UTC)  30-Nov-2021 17:50:38
Local (UTC-8)  30-Nov-2021 09:50:38
 
METAR
KSDB 
17nm E 
301653Z AUTO 04006KT 10SM CLR 19/M07 A3026 RMK AO2 SLP201 T01941072 $
KCMA 
33nm S 
301655Z 29004KT 9SM HZ CLR 12/09 A3007 RMK AO2 SLP191 T01170094
TAF
KCMA 
33nm S 
301502Z 3015/0112 00000KT P6SM SKC FM301600 VRB03KT P6SM SKC FM301700 05008KT P6SM SKC FM302300 24007KT P6SM SKC FM010300 VRB03KT P6SM SKC FM010900 05010KT P6SM SKC
KOXR 
34nm S 
301136Z 3012/0112 VRB03KT 1/4SM FG OVC002 FM301400 VRB03KT 2SM BR OVC004 FM301600 VRB03KT 5SM HZ BKN005 FM301700 04006KT P6SM SKC FM302000 27007KT P6SM SKC FM010300 VRB03KT P6SM SKC FM011100 05008KT P6SM SKC
KNTD 
39nm S 
3015/0115 VRB03KT 0800 FG BKN002 QNH3001INS TEMPO 3015/3018 04010G15KT 8000 BCFG SCT002 BECMG 3016/3018 17007KT 9999 NSW FEW002 FEW010 QNH2999INS FM302100 23008KT 9999 SKC QNH2995INS FM010300 VRB06KT 6000 HZ SCT004 QNH2996INS TEMPO 0104/0110 0400 FG OVC002 FM011400 01012G18KT 9999 SKC QNH2999INS T07/3015Z T20/3020Z FS30029
KBFL 
40nm N 
301120Z 3012/0112 VRB03KT 4SM HZ SKC= TAF KJER 301120Z 3012/0112 VRB03KT P6SM SKC FM301900 26008KT P6SM FEW200 FM010300 22006KT P6SM BKN150
NOTAMs
Click for the latest NOTAMs
NOTAMs are issued by the DoD/FAA and will open in a separate window not controlled by AirNav.

 

 
 

Would you like to see your business listed on this page?

 If your business provides an interesting product or service to pilots, flight crews, aircraft, or users of the Conover Air Lodge Airport, you should consider listing it here.  To start the listing process, click on the button below
 
Add a business
 

Other Pages about Conover Air Lodge Airport

Update a link
 
Copyright © AirNav, LLC. All rights reserved. Privacy Policy  Contact